sensor_id;sensor_type;location;lat;lon;timestamp;P1;durP1;ratioP1;P2;durP2;ratioP2
33579;SDS011;19909;43.644;-79.438;2023-10-19T00:02:05;4.40;;;2.00;;
33579;SDS011;19909;43.644;-79.438;2023-10-19T00:07:05;4.32;;;2.33;;
33579;SDS011;19909;43.644;-79.438;2023-10-19T00:09:33;3.13;;;2.20;;
33579;SDS011;19909;43.644;-79.438;2023-10-19T00:12:03;3.70;;;2.63;;
33579;SDS011;19909;43.644;-79.438;2023-10-19T00:14:34;5.53;;;2.72;;
33579;SDS011;19909;43.644;-79.438;2023-10-19T00:17:00;3.75;;;2.42;;
33579;SDS011;19909;43.644;-79.438;2023-10-19T00:19:32;3.10;;;2.75;;
33579;SDS011;19909;43.644;-79.438;2023-10-19T00:22:04;3.88;;;2.50;;
33579;SDS011;19909;43.644;-79.438;2023-10-19T00:24:34;4.10;;;2.70;;
33579;SDS011;19909;43.644;-79.438;2023-10-19T00:27:01;3.50;;;2.13;;
33579;SDS011;19909;43.644;-79.438;2023-10-19T00:29:35;3.17;;;2.40;;
33579;SDS011;19909;43.644;-79.438;2023-10-19T00:32:14;2.90;;;2.13;;
33579;SDS011;19909;43.644;-79.438;2023-10-19T00:34:41;3.47;;;2.50;;
33579;SDS011;19909;43.644;-79.438;2023-10-19T00:37:15;3.50;;;2.50;;
33579;SDS011;19909;43.644;-79.438;2023-10-19T00:39:44;4.28;;;3.30;;
33579;SDS011;19909;43.644;-79.438;2023-10-19T00:42:19;3.33;;;2.35;;
33579;SDS011;19909;43.644;-79.438;2023-10-19T00:44:51;5.55;;;2.50;;
33579;SDS011;19909;43.644;-79.438;2023-10-19T00:47:26;5.15;;;2.40;;
33579;SDS011;19909;43.644;-79.438;2023-10-19T00:49:55;3.85;;;2.30;;
33579;SDS011;19909;43.644;-79.438;2023-10-19T00:52:22;4.80;;;2.50;;
33579;SDS011;19909;43.644;-79.438;2023-10-19T00:54:49;4.18;;;2.22;;
33579;SDS011;19909;43.644;-79.438;2023-10-19T00:57:18;2.75;;;2.05;;
33579;SDS011;19909;43.644;-79.438;2023-10-19T01:00:11;3.33;;;2.22;;
33579;SDS011;19909;43.644;-79.438;2023-10-19T01:02:38;3.35;;;2.03;;
33579;SDS011;19909;43.644;-79.438;2023-10-19T01:05:11;4.60;;;2.20;;
33579;SDS011;19909;43.644;-79.438;2023-10-19T01:07:46;3.67;;;2.45;;
33579;SDS011;19909;43.644;-79.438;2023-10-19T01:10:21;4.38;;;2.47;;
33579;SDS011;19909;43.644;-79.438;2023-10-19T01:12:48;3.85;;;2.35;;
33579;SDS011;19909;43.644;-79.438;2023-10-19T01:15:18;3.90;;;2.60;;
33579;SDS011;19909;43.644;-79.438;2023-10-19T01:17:55;3.42;;;2.28;;
33579;SDS011;19909;43.644;-79.438;2023-10-19T01:20:30;2.63;;;1.95;;
33579;SDS011;19909;43.644;-79.438;2023-10-19T01:22:58;3.75;;;2.45;;
33579;SDS011;19909;43.644;-79.438;2023-10-19T01:25:48;2.65;;;2.15;;
33579;SDS011;19909;43.644;-79.438;2023-10-19T01:28:21;3.25;;;2.28;;
33579;SDS011;19909;43.644;-79.438;2023-10-19T01:30:54;3.03;;;2.13;;
33579;SDS011;19909;43.644;-79.438;2023-10-19T01:33:20;3.88;;;2.33;;
33579;SDS011;19909;43.644;-79.438;2023-10-19T01:35:48;3.78;;;2.50;;
33579;SDS011;19909;43.644;-79.438;2023-10-19T01:38:32;4.30;;;2.35;;
33579;SDS011;19909;43.644;-79.438;2023-10-19T01:43:26;3.80;;;2.40;;
33579;SDS011;19909;43.644;-79.438;2023-10-19T01:45:59;5.13;;;3.15;;
33579;SDS011;19909;43.644;-79.438;2023-10-19T01:48:30;4.50;;;3.67;;
33579;SDS011;19909;43.644;-79.438;2023-10-19T01:51:03;4.72;;;3.50;;
33579;SDS011;19909;43.644;-79.438;2023-10-19T01:53:33;5.13;;;3.47;;
33579;SDS011;19909;43.644;-79.438;2023-10-19T01:56:04;5.10;;;3.80;;
33579;SDS011;19909;43.644;-79.438;2023-10-19T01:58:35;5.40;;;3.72;;
33579;SDS011;19909;43.644;-79.438;2023-10-19T02:01:02;5.82;;;4.00;;
33579;SDS011;19909;43.644;-79.438;2023-10-19T02:03:49;4.93;;;3.45;;
33579;SDS011;19909;43.644;-79.438;2023-10-19T02:06:20;6.95;;;3.75;;
33579;SDS011;19909;43.644;-79.438;2023-10-19T02:09:02;3.47;;;3.17;;
33579;SDS011;19909;43.644;-79.438;2023-10-19T02:11:42;4.72;;;3.30;;
33579;SDS011;19909;43.644;-79.438;2023-10-19T02:14:11;3.72;;;2.72;;
33579;SDS011;19909;43.644;-79.438;2023-10-19T02:16:41;3.72;;;3.33;;
33579;SDS011;19909;43.644;-79.438;2023-10-19T02:19:09;4.05;;;2.80;;
33579;SDS011;19909;43.644;-79.438;2023-10-19T02:21:35;3.10;;;2.28;;
33579;SDS011;19909;43.644;-79.438;2023-10-19T02:24:08;3.55;;;2.67;;
33579;SDS011;19909;43.644;-79.438;2023-10-19T02:26:42;3.38;;;2.85;;
33579;SDS011;19909;43.644;-79.438;2023-10-19T02:29:09;4.78;;;2.22;;
33579;SDS011;19909;43.644;-79.438;2023-10-19T02:31:39;3.03;;;2.22;;
33579;SDS011;19909;43.644;-79.438;2023-10-19T02:34:06;3.83;;;2.15;;
33579;SDS011;19909;43.644;-79.438;2023-10-19T02:36:36;3.80;;;2.55;;
33579;SDS011;19909;43.644;-79.438;2023-10-19T02:39:08;2.55;;;2.35;;
33579;SDS011;19909;43.644;-79.438;2023-10-19T02:41:35;3.03;;;2.05;;
33579;SDS011;19909;43.644;-79.438;2023-10-19T02:44:16;2.17;;;1.77;;
33579;SDS011;19909;43.644;-79.438;2023-10-19T02:46:49;2.65;;;1.90;;
33579;SDS011;19909;43.644;-79.438;2023-10-19T02:49:40;4.00;;;2.33;;
33579;SDS011;19909;43.644;-79.438;2023-10-19T02:52:08;3.03;;;2.00;;
33579;SDS011;19909;43.644;-79.438;2023-10-19T02:54:38;2.55;;;2.00;;
33579;SDS011;19909;43.644;-79.438;2023-10-19T02:57:05;2.72;;;2.13;;
33579;SDS011;19909;43.644;-79.438;2023-10-19T02:59:32;3.75;;;1.83;;
33579;SDS011;19909;43.644;-79.438;2023-10-19T03:01:59;2.63;;;2.20;;
33579;SDS011;19909;43.644;-79.438;2023-10-19T03:04:27;2.10;;;1.90;;
33579;SDS011;19909;43.644;-79.438;2023-10-19T03:06:56;3.03;;;2.25;;
33579;SDS011;19909;43.644;-79.438;2023-10-19T03:09:22;4.90;;;2.40;;
33579;SDS011;19909;43.644;-79.438;2023-10-19T03:11:51;3.03;;;2.45;;
33579;SDS011;19909;43.644;-79.438;2023-10-19T03:14:19;3.10;;;2.55;;
33579;SDS011;19909;43.644;-79.438;2023-10-19T03:16:45;4.25;;;2.70;;
33579;SDS011;19909;43.644;-79.438;2023-10-19T03:19:12;2.50;;;2.30;;
33579;SDS011;19909;43.644;-79.438;2023-10-19T03:21:39;3.50;;;2.63;;
33579;SDS011;19909;43.644;-79.438;2023-10-19T03:24:09;5.32;;;2.42;;
33579;SDS011;19909;43.644;-79.438;2023-10-19T03:26:40;3.83;;;2.23;;
33579;SDS011;19909;43.644;-79.438;2023-10-19T03:29:14;5.18;;;2.65;;
33579;SDS011;19909;43.644;-79.438;2023-10-19T03:31:41;3.80;;;2.70;;
33579;SDS011;19909;43.644;-79.438;2023-10-19T03:34:11;3.53;;;2.40;;
33579;SDS011;19909;43.644;-79.438;2023-10-19T03:36:39;3.70;;;2.60;;
33579;SDS011;19909;43.644;-79.438;2023-10-19T03:39:05;3.47;;;2.40;;
33579;SDS011;19909;43.644;-79.438;2023-10-19T03:41:41;4.93;;;2.28;;
33579;SDS011;19909;43.644;-79.438;2023-10-19T03:44:08;3.63;;;2.85;;
33579;SDS011;19909;43.644;-79.438;2023-10-19T03:47:01;3.78;;;2.72;;
33579;SDS011;19909;43.644;-79.438;2023-10-19T03:49:30;3.38;;;2.35;;
33579;SDS011;19909;43.644;-79.438;2023-10-19T03:52:01;3.28;;;2.45;;
33579;SDS011;19909;43.644;-79.438;2023-10-19T03:54:33;4.68;;;2.65;;
33579;SDS011;19909;43.644;-79.438;2023-10-19T03:57:09;2.72;;;2.03;;
33579;SDS011;19909;43.644;-79.438;2023-10-19T03:59:55;3.20;;;2.40;;
33579;SDS011;19909;43.644;-79.438;2023-10-19T04:02:24;2.75;;;2.20;;
33579;SDS011;19909;43.644;-79.438;2023-10-19T04:05:02;3.67;;;2.40;;
33579;SDS011;19909;43.644;-79.438;2023-10-19T04:07:29;3.13;;;2.40;;
33579;SDS011;19909;43.644;-79.438;2023-10-19T04:09:58;3.90;;;2.35;;
33579;SDS011;19909;43.644;-79.438;2023-10-19T04:12:34;4.32;;;2.13;;
33579;SDS011;19909;43.644;-79.438;2023-10-19T04:15:02;4.32;;;2.53;;
33579;SDS011;19909;43.644;-79.438;2023-10-19T04:17:43;3.80;;;2.35;;
33579;SDS011;19909;43.644;-79.438;2023-10-19T04:20:17;3.42;;;2.70;;
33579;SDS011;19909;43.644;-79.438;2023-10-19T04:22:44;4.00;;;2.85;;
33579;SDS011;19909;43.644;-79.438;2023-10-19T04:25:11;5.28;;;3.10;;
33579;SDS011;19909;43.644;-79.438;2023-10-19T04:27:42;3.58;;;2.40;;
33579;SDS011;19909;43.644;-79.438;2023-10-19T04:30:09;3.60;;;2.90;;
33579;SDS011;19909;43.644;-79.438;2023-10-19T04:32:43;3.05;;;2.42;;
33579;SDS011;19909;43.644;-79.438;2023-10-19T04:35:10;2.92;;;2.40;;
33579;SDS011;19909;43.644;-79.438;2023-10-19T04:37:39;5.50;;;2.58;;
33579;SDS011;19909;43.644;-79.438;2023-10-19T04:40:11;4.70;;;2.78;;
33579;SDS011;19909;43.644;-79.438;2023-10-19T04:42:37;3.72;;;2.85;;
33579;SDS011;19909;43.644;-79.438;2023-10-19T04:45:04;3.38;;;2.78;;
33579;SDS011;19909;43.644;-79.438;2023-10-19T04:47:31;3.25;;;2.53;;
33579;SDS011;19909;43.644;-79.438;2023-10-19T04:50:01;6.47;;;2.97;;
33579;SDS011;19909;43.644;-79.438;2023-10-19T04:52:28;5.10;;;2.90;;
33579;SDS011;19909;43.644;-79.438;2023-10-19T04:54:54;5.22;;;2.88;;
33579;SDS011;19909;43.644;-79.438;2023-10-19T04:57:20;3.35;;;2.65;;
33579;SDS011;19909;43.644;-79.438;2023-10-19T04:59:47;3.28;;;2.22;;
33579;SDS011;19909;43.644;-79.438;2023-10-19T05:02:13;3.85;;;2.47;;
33579;SDS011;19909;43.644;-79.438;2023-10-19T05:04:39;3.20;;;2.50;;
33579;SDS011;19909;43.644;-79.438;2023-10-19T05:07:09;2.85;;;2.10;;
33579;SDS011;19909;43.644;-79.438;2023-10-19T05:09:37;3.00;;;2.20;;
33579;SDS011;19909;43.644;-79.438;2023-10-19T05:12:05;2.88;;;2.20;;
33579;SDS011;19909;43.644;-79.438;2023-10-19T05:14:40;3.97;;;1.90;;
33579;SDS011;19909;43.644;-79.438;2023-10-19T05:17:08;3.45;;;1.77;;
33579;SDS011;19909;43.644;-79.438;2023-10-19T05:19:35;3.13;;;1.83;;
33579;SDS011;19909;43.644;-79.438;2023-10-19T05:22:02;4.18;;;2.15;;
33579;SDS011;19909;43.644;-79.438;2023-10-19T05:24:31;1.92;;;1.50;;
33579;SDS011;19909;43.644;-79.438;2023-10-19T05:26:57;2.30;;;1.70;;
33579;SDS011;19909;43.644;-79.438;2023-10-19T05:29:24;2.30;;;1.52;;
33579;SDS011;19909;43.644;-79.438;2023-10-19T05:31:50;2.90;;;1.38;;
33579;SDS011;19909;43.644;-79.438;2023-10-19T05:34:26;5.38;;;2.00;;
33579;SDS011;19909;43.644;-79.438;2023-10-19T05:36:54;2.58;;;1.60;;
33579;SDS011;19909;43.644;-79.438;2023-10-19T05:39:23;2.20;;;1.50;;
33579;SDS011;19909;43.644;-79.438;2023-10-19T05:41:55;2.15;;;1.35;;
33579;SDS011;19909;43.644;-79.438;2023-10-19T05:44:26;3.03;;;1.75;;
33579;SDS011;19909;43.644;-79.438;2023-10-19T05:46:55;4.03;;;2.05;;
33579;SDS011;19909;43.644;-79.438;2023-10-19T05:49:23;2.88;;;1.60;;
33579;SDS011;19909;43.644;-79.438;2023-10-19T05:51:50;1.85;;;1.60;;
33579;SDS011;19909;43.644;-79.438;2023-10-19T05:54:16;3.30;;;1.42;;
33579;SDS011;19909;43.644;-79.438;2023-10-19T05:56:42;2.67;;;1.55;;
33579;SDS011;19909;43.644;-79.438;2023-10-19T05:59:08;2.63;;;1.50;;
33579;SDS011;19909;43.644;-79.438;2023-10-19T06:01:35;1.70;;;1.27;;
33579;SDS011;19909;43.644;-79.438;2023-10-19T06:04:06;3.47;;;1.33;;
33579;SDS011;19909;43.644;-79.438;2023-10-19T06:06:32;3.75;;;1.88;;
33579;SDS011;19909;43.644;-79.438;2023-10-19T06:08:58;3.97;;;1.80;;
33579;SDS011;19909;43.644;-79.438;2023-10-19T06:11:28;3.67;;;1.60;;
33579;SDS011;19909;43.644;-79.438;2023-10-19T06:13:57;1.38;;;1.20;;
33579;SDS011;19909;43.644;-79.438;2023-10-19T06:16:24;2.90;;;1.40;;
33579;SDS011;19909;43.644;-79.438;2023-10-19T06:18:50;2.33;;;1.65;;
33579;SDS011;19909;43.644;-79.438;2023-10-19T06:21:19;2.90;;;1.50;;
33579;SDS011;19909;43.644;-79.438;2023-10-19T06:23:45;1.60;;;1.35;;
33579;SDS011;19909;43.644;-79.438;2023-10-19T06:26:12;2.95;;;1.40;;
33579;SDS011;19909;43.644;-79.438;2023-10-19T06:28:41;1.45;;;1.27;;
33579;SDS011;19909;43.644;-79.438;2023-10-19T06:31:07;1.20;;;1.10;;
33579;SDS011;19909;43.644;-79.438;2023-10-19T06:33:34;1.77;;;1.52;;
33579;SDS011;19909;43.644;-79.438;2023-10-19T06:36:01;3.45;;;1.17;;
33579;SDS011;19909;43.644;-79.438;2023-10-19T06:38:30;2.42;;;1.25;;
33579;SDS011;19909;43.644;-79.438;2023-10-19T06:40:57;1.38;;;1.17;;
33579;SDS011;19909;43.644;-79.438;2023-10-19T06:43:28;2.13;;;1.55;;
33579;SDS011;19909;43.644;-79.438;2023-10-19T06:45:55;1.70;;;1.52;;
33579;SDS011;19909;43.644;-79.438;2023-10-19T06:48:22;3.00;;;1.55;;
33579;SDS011;19909;43.644;-79.438;2023-10-19T06:50:48;1.65;;;1.52;;
33579;SDS011;19909;43.644;-79.438;2023-10-19T06:53:15;1.45;;;1.20;;
33579;SDS011;19909;43.644;-79.438;2023-10-19T06:55:41;1.35;;;1.25;;
33579;SDS011;19909;43.644;-79.438;2023-10-19T06:58:09;2.05;;;1.60;;
33579;SDS011;19909;43.644;-79.438;2023-10-19T07:00:37;4.00;;;1.27;;
33579;SDS011;19909;43.644;-79.438;2023-10-19T07:03:07;1.67;;;1.27;;
33579;SDS011;19909;43.644;-79.438;2023-10-19T07:05:33;1.63;;;1.15;;
33579;SDS011;19909;43.644;-79.438;2023-10-19T07:08:00;3.47;;;1.40;;
33579;SDS011;19909;43.644;-79.438;2023-10-19T07:10:27;1.63;;;1.40;;
33579;SDS011;19909;43.644;-79.438;2023-10-19T07:12:54;1.65;;;1.38;;
33579;SDS011;19909;43.644;-79.438;2023-10-19T07:15:23;1.67;;;1.50;;
33579;SDS011;19909;43.644;-79.438;2023-10-19T07:17:52;1.80;;;1.50;;
33579;SDS011;19909;43.644;-79.438;2023-10-19T07:20:22;2.60;;;1.40;;
33579;SDS011;19909;43.644;-79.438;2023-10-19T07:23:00;1.55;;;1.30;;
33579;SDS011;19909;43.644;-79.438;2023-10-19T07:25:47;1.90;;;1.42;;
33579;SDS011;19909;43.644;-79.438;2023-10-19T07:28:18;1.55;;;1.27;;
33579;SDS011;19909;43.644;-79.438;2023-10-19T07:30:44;1.65;;;1.50;;
33579;SDS011;19909;43.644;-79.438;2023-10-19T07:33:16;1.60;;;1.50;;
33579;SDS011;19909;43.644;-79.438;2023-10-19T07:35:43;4.90;;;1.80;;
33579;SDS011;19909;43.644;-79.438;2023-10-19T07:38:17;2.08;;;1.50;;
33579;SDS011;19909;43.644;-79.438;2023-10-19T07:40:46;3.53;;;1.70;;
33579;SDS011;19909;43.644;-79.438;2023-10-19T07:43:13;2.10;;;1.58;;
33579;SDS011;19909;43.644;-79.438;2023-10-19T07:45:39;1.95;;;1.30;;
33579;SDS011;19909;43.644;-79.438;2023-10-19T07:48:05;2.75;;;1.35;;
33579;SDS011;19909;43.644;-79.438;2023-10-19T07:50:35;2.60;;;1.50;;
33579;SDS011;19909;43.644;-79.438;2023-10-19T07:53:02;1.50;;;1.35;;
33579;SDS011;19909;43.644;-79.438;2023-10-19T07:55:29;2.35;;;1.30;;
33579;SDS011;19909;43.644;-79.438;2023-10-19T07:57:59;2.00;;;1.23;;
33579;SDS011;19909;43.644;-79.438;2023-10-19T08:00:26;2.67;;;1.15;;
33579;SDS011;19909;43.644;-79.438;2023-10-19T08:02:54;1.10;;;1.00;;
33579;SDS011;19909;43.644;-79.438;2023-10-19T08:05:21;3.03;;;1.60;;
33579;SDS011;19909;43.644;-79.438;2023-10-19T08:07:49;1.70;;;1.35;;
33579;SDS011;19909;43.644;-79.438;2023-10-19T08:10:16;3.13;;;1.33;;
33579;SDS011;19909;43.644;-79.438;2023-10-19T08:12:45;2.17;;;1.05;;
33579;SDS011;19909;43.644;-79.438;2023-10-19T08:15:13;2.13;;;1.35;;
33579;SDS011;19909;43.644;-79.438;2023-10-19T08:17:41;3.65;;;1.58;;
33579;SDS011;19909;43.644;-79.438;2023-10-19T08:20:11;1.35;;;1.25;;
33579;SDS011;19909;43.644;-79.438;2023-10-19T08:22:42;2.67;;;1.50;;
33579;SDS011;19909;43.644;-79.438;2023-10-19T08:25:11;2.92;;;1.20;;
33579;SDS011;19909;43.644;-79.438;2023-10-19T08:27:40;2.45;;;1.50;;
33579;SDS011;19909;43.644;-79.438;2023-10-19T08:30:10;2.47;;;1.50;;
33579;SDS011;19909;43.644;-79.438;2023-10-19T08:32:40;1.50;;;1.40;;
33579;SDS011;19909;43.644;-79.438;2023-10-19T08:35:08;2.95;;;1.50;;
33579;SDS011;19909;43.644;-79.438;2023-10-19T08:37:38;1.42;;;1.20;;
33579;SDS011;19909;43.644;-79.438;2023-10-19T08:40:11;2.55;;;1.38;;
33579;SDS011;19909;43.644;-79.438;2023-10-19T08:42:43;1.42;;;1.20;;
33579;SDS011;19909;43.644;-79.438;2023-10-19T08:45:12;2.22;;;1.33;;
33579;SDS011;19909;43.644;-79.438;2023-10-19T08:50:21;1.60;;;1.42;;
33579;SDS011;19909;43.644;-79.438;2023-10-19T08:52:52;1.45;;;1.20;;
33579;SDS011;19909;43.644;-79.438;2023-10-19T08:55:20;1.95;;;1.45;;
33579;SDS011;19909;43.644;-79.438;2023-10-19T08:57:48;1.90;;;1.58;;
33579;SDS011;19909;43.644;-79.438;2023-10-19T09:00:15;3.03;;;1.75;;
33579;SDS011;19909;43.644;-79.438;2023-10-19T09:02:46;2.15;;;1.50;;
33579;SDS011;19909;43.644;-79.438;2023-10-19T09:05:13;3.00;;;1.77;;
33579;SDS011;19909;43.644;-79.438;2023-10-19T09:07:50;3.67;;;1.63;;
33579;SDS011;19909;43.644;-79.438;2023-10-19T09:10:23;2.17;;;1.40;;
33579;SDS011;19909;43.644;-79.438;2023-10-19T09:15:27;1.70;;;1.30;;
33579;SDS011;19909;43.644;-79.438;2023-10-19T09:18:16;1.80;;;1.70;;
33579;SDS011;19909;43.644;-79.438;2023-10-19T09:20:44;2.58;;;1.90;;
33579;SDS011;19909;43.644;-79.438;2023-10-19T09:23:25;1.70;;;1.45;;
33579;SDS011;19909;43.644;-79.438;2023-10-19T09:25:55;1.52;;;1.27;;
33579;SDS011;19909;43.644;-79.438;2023-10-19T09:28:24;1.55;;;1.20;;
33579;SDS011;19909;43.644;-79.438;2023-10-19T09:30:50;2.00;;;1.40;;
33579;SDS011;19909;43.644;-79.438;2023-10-19T09:33:17;2.97;;;1.52;;
33579;SDS011;19909;43.644;-79.438;2023-10-19T09:35:47;2.20;;;1.20;;
33579;SDS011;19909;43.644;-79.438;2023-10-19T09:38:17;2.42;;;1.50;;
33579;SDS011;19909;43.644;-79.438;2023-10-19T09:40:53;1.60;;;1.45;;
33579;SDS011;19909;43.644;-79.438;2023-10-19T09:45:52;2.03;;;1.48;;
33579;SDS011;19909;43.644;-79.438;2023-10-19T09:48:24;2.17;;;1.75;;
33579;SDS011;19909;43.644;-79.438;2023-10-19T09:50:51;3.15;;;1.73;;
33579;SDS011;19909;43.644;-79.438;2023-10-19T09:53:25;2.28;;;1.48;;
33579;SDS011;19909;43.644;-79.438;2023-10-19T09:55:57;2.25;;;1.60;;
33579;SDS011;19909;43.644;-79.438;2023-10-19T09:58:29;2.92;;;1.80;;
33579;SDS011;19909;43.644;-79.438;2023-10-19T10:01:04;2.38;;;1.52;;
33579;SDS011;19909;43.644;-79.438;2023-10-19T10:03:49;1.77;;;1.60;;
33579;SDS011;19909;43.644;-79.438;2023-10-19T10:07:02;2.40;;;1.45;;
33579;SDS011;19909;43.644;-79.438;2023-10-19T10:09:36;2.38;;;1.73;;
33579;SDS011;19909;43.644;-79.438;2023-10-19T10:14:55;3.13;;;2.30;;
33579;SDS011;19909;43.644;-79.438;2023-10-19T10:17:26;2.75;;;2.25;;
33579;SDS011;19909;43.644;-79.438;2023-10-19T10:20:39;2.70;;;2.22;;
33579;SDS011;19909;43.644;-79.438;2023-10-19T10:22:44;2.38;;;1.92;;
33579;SDS011;19909;43.644;-79.438;2023-10-19T10:25:30;2.88;;;1.98;;
33579;SDS011;19909;43.644;-79.438;2023-10-19T10:27:59;2.55;;;2.35;;
33579;SDS011;19909;43.644;-79.438;2023-10-19T10:30:30;2.45;;;2.10;;
33579;SDS011;19909;43.644;-79.438;2023-10-19T10:32:56;2.22;;;2.03;;
33579;SDS011;19909;43.644;-79.438;2023-10-19T10:38:07;3.70;;;2.45;;
33579;SDS011;19909;43.644;-79.438;2023-10-19T10:40:43;2.25;;;2.05;;
33579;SDS011;19909;43.644;-79.438;2023-10-19T10:43:13;2.40;;;2.20;;
33579;SDS011;19909;43.644;-79.438;2023-10-19T10:45:40;2.35;;;2.10;;
33579;SDS011;19909;43.644;-79.438;2023-10-19T10:48:13;4.47;;;2.17;;
33579;SDS011;19909;43.644;-79.438;2023-10-19T10:50:39;2.72;;;1.92;;
33579;SDS011;19909;43.644;-79.438;2023-10-19T10:53:11;2.00;;;1.48;;
33579;SDS011;19909;43.644;-79.438;2023-10-19T10:55:38;2.00;;;1.80;;
33579;SDS011;19909;43.644;-79.438;2023-10-19T10:58:04;4.50;;;2.00;;
33579;SDS011;19909;43.644;-79.438;2023-10-19T11:00:31;3.47;;;1.70;;
33579;SDS011;19909;43.644;-79.438;2023-10-19T11:03:06;2.15;;;1.63;;
33579;SDS011;19909;43.644;-79.438;2023-10-19T11:05:33;2.55;;;2.10;;
33579;SDS011;19909;43.644;-79.438;2023-10-19T11:10:40;1.67;;;1.58;;
33579;SDS011;19909;43.644;-79.438;2023-10-19T11:13:08;2.30;;;1.77;;
33579;SDS011;19909;43.644;-79.438;2023-10-19T11:15:36;2.15;;;1.88;;
33579;SDS011;19909;43.644;-79.438;2023-10-19T11:18:04;2.15;;;1.90;;
33579;SDS011;19909;43.644;-79.438;2023-10-19T11:20:35;2.03;;;1.80;;
33579;SDS011;19909;43.644;-79.438;2023-10-19T11:23:01;2.92;;;2.05;;
33579;SDS011;19909;43.644;-79.438;2023-10-19T11:25:28;2.13;;;1.98;;
33579;SDS011;19909;43.644;-79.438;2023-10-19T11:27:57;1.80;;;1.70;;
33579;SDS011;19909;43.644;-79.438;2023-10-19T11:30:31;2.25;;;2.05;;
33579;SDS011;19909;43.644;-79.438;2023-10-19T11:32:58;5.38;;;2.30;;
33579;SDS011;19909;43.644;-79.438;2023-10-19T11:35:27;2.55;;;1.70;;
33579;SDS011;19909;43.644;-79.438;2023-10-19T11:37:56;3.25;;;2.17;;
33579;SDS011;19909;43.644;-79.438;2023-10-19T11:40:29;2.35;;;1.92;;
33579;SDS011;19909;43.644;-79.438;2023-10-19T11:42:56;2.95;;;1.85;;
33579;SDS011;19909;43.644;-79.438;2023-10-19T11:45:22;2.28;;;1.75;;
33579;SDS011;19909;43.644;-79.438;2023-10-19T11:47:49;2.63;;;2.15;;
33579;SDS011;19909;43.644;-79.438;2023-10-19T11:50:15;4.95;;;2.00;;
33579;SDS011;19909;43.644;-79.438;2023-10-19T11:52:43;2.60;;;1.90;;
33579;SDS011;19909;43.644;-79.438;2023-10-19T11:55:13;2.40;;;2.00;;
33579;SDS011;19909;43.644;-79.438;2023-10-19T11:57:41;2.35;;;1.90;;
33579;SDS011;19909;43.644;-79.438;2023-10-19T12:00:09;2.40;;;1.80;;
33579;SDS011;19909;43.644;-79.438;2023-10-19T12:02:47;2.60;;;2.40;;
33579;SDS011;19909;43.644;-79.438;2023-10-19T12:05:13;3.28;;;2.10;;
33579;SDS011;19909;43.644;-79.438;2023-10-19T12:07:39;2.92;;;2.30;;
33579;SDS011;19909;43.644;-79.438;2023-10-19T12:10:10;4.03;;;2.60;;
33579;SDS011;19909;43.644;-79.438;2023-10-19T12:12:37;4.38;;;2.50;;
33579;SDS011;19909;43.644;-79.438;2023-10-19T12:15:06;4.50;;;2.00;;
33579;SDS011;19909;43.644;-79.438;2023-10-19T12:17:33;3.00;;;2.35;;
33579;SDS011;19909;43.644;-79.438;2023-10-19T12:20:00;4.93;;;2.08;;
33579;SDS011;19909;43.644;-79.438;2023-10-19T12:22:26;2.38;;;2.10;;
33579;SDS011;19909;43.644;-79.438;2023-10-19T12:24:57;6.18;;;2.35;;
33579;SDS011;19909;43.644;-79.438;2023-10-19T12:27:24;3.33;;;2.28;;
33579;SDS011;19909;43.644;-79.438;2023-10-19T12:29:51;2.30;;;2.10;;
33579;SDS011;19909;43.644;-79.438;2023-10-19T12:32:21;3.28;;;2.30;;
33579;SDS011;19909;43.644;-79.438;2023-10-19T12:34:47;2.40;;;2.00;;
33579;SDS011;19909;43.644;-79.438;2023-10-19T12:37:23;3.15;;;2.10;;
33579;SDS011;19909;43.644;-79.438;2023-10-19T12:39:50;3.60;;;1.90;;
33579;SDS011;19909;43.644;-79.438;2023-10-19T12:42:16;3.55;;;2.08;;
33579;SDS011;19909;43.644;-79.438;2023-10-19T12:44:43;4.03;;;2.25;;
33579;SDS011;19909;43.644;-79.438;2023-10-19T12:47:09;4.00;;;2.00;;
33579;SDS011;19909;43.644;-79.438;2023-10-19T12:49:39;2.85;;;1.90;;
33579;SDS011;19909;43.644;-79.438;2023-10-19T12:52:06;2.00;;;1.55;;
33579;SDS011;19909;43.644;-79.438;2023-10-19T12:54:34;3.55;;;2.00;;
33579;SDS011;19909;43.644;-79.438;2023-10-19T12:57:01;5.95;;;1.50;;
33579;SDS011;19909;43.644;-79.438;2023-10-19T12:59:33;2.42;;;1.20;;
33579;SDS011;19909;43.644;-79.438;2023-10-19T13:02:02;2.78;;;1.63;;
33579;SDS011;19909;43.644;-79.438;2023-10-19T13:04:29;3.42;;;1.77;;
33579;SDS011;19909;43.644;-79.438;2023-10-19T13:06:58;2.95;;;1.65;;
33579;SDS011;19909;43.644;-79.438;2023-10-19T13:09:25;3.08;;;1.77;;
33579;SDS011;19909;43.644;-79.438;2023-10-19T13:11:58;3.10;;;1.67;;
33579;SDS011;19909;43.644;-79.438;2023-10-19T13:14:25;2.30;;;1.50;;
33579;SDS011;19909;43.644;-79.438;2023-10-19T13:16:52;2.17;;;1.40;;
33579;SDS011;19909;43.644;-79.438;2023-10-19T13:19:20;2.38;;;1.70;;
33579;SDS011;19909;43.644;-79.438;2023-10-19T13:21:50;2.03;;;1.83;;
33579;SDS011;19909;43.644;-79.438;2023-10-19T13:24:19;3.10;;;2.15;;
33579;SDS011;19909;43.644;-79.438;2023-10-19T13:26:46;3.13;;;2.15;;
33579;SDS011;19909;43.644;-79.438;2023-10-19T13:29:13;2.25;;;1.90;;
33579;SDS011;19909;43.644;-79.438;2023-10-19T13:31:43;2.20;;;2.00;;
33579;SDS011;19909;43.644;-79.438;2023-10-19T13:34:15;3.42;;;1.88;;
33579;SDS011;19909;43.644;-79.438;2023-10-19T13:36:41;3.28;;;1.73;;
33579;SDS011;19909;43.644;-79.438;2023-10-19T13:39:09;2.50;;;2.13;;
33579;SDS011;19909;43.644;-79.438;2023-10-19T13:41:41;3.63;;;2.37;;
33579;SDS011;19909;43.644;-79.438;2023-10-19T13:44:07;3.70;;;2.00;;
33579;SDS011;19909;43.644;-79.438;2023-10-19T13:46:33;2.90;;;2.10;;
33579;SDS011;19909;43.644;-79.438;2023-10-19T13:48:59;2.25;;;2.05;;
33579;SDS011;19909;43.644;-79.438;2023-10-19T13:51:28;4.57;;;2.40;;
33579;SDS011;19909;43.644;-79.438;2023-10-19T13:53:54;2.35;;;2.15;;
33579;SDS011;19909;43.644;-79.438;2023-10-19T13:56:21;2.10;;;1.90;;
33579;SDS011;19909;43.644;-79.438;2023-10-19T13:58:47;4.88;;;2.08;;
33579;SDS011;19909;43.644;-79.438;2023-10-19T14:01:14;2.08;;;1.70;;
33579;SDS011;19909;43.644;-79.438;2023-10-19T14:03:41;2.10;;;1.80;;
33579;SDS011;19909;43.644;-79.438;2023-10-19T14:06:13;2.63;;;1.92;;
33579;SDS011;19909;43.644;-79.438;2023-10-19T14:08:40;3.08;;;1.83;;
33579;SDS011;19909;43.644;-79.438;2023-10-19T14:11:06;3.35;;;2.28;;
33579;SDS011;19909;43.644;-79.438;2023-10-19T14:13:33;2.10;;;1.90;;
33579;SDS011;19909;43.644;-79.438;2023-10-19T14:16:04;3.35;;;1.80;;
33579;SDS011;19909;43.644;-79.438;2023-10-19T14:18:33;3.00;;;1.90;;
33579;SDS011;19909;43.644;-79.438;2023-10-19T14:21:00;2.58;;;2.00;;
33579;SDS011;19909;43.644;-79.438;2023-10-19T14:23:26;4.57;;;1.83;;
33579;SDS011;19909;43.644;-79.438;2023-10-19T14:25:53;1.65;;;1.52;;
33579;SDS011;19909;43.644;-79.438;2023-10-19T14:28:19;2.13;;;1.40;;
33579;SDS011;19909;43.644;-79.438;2023-10-19T14:30:45;3.70;;;1.90;;
33579;SDS011;19909;43.644;-79.438;2023-10-19T14:33:11;1.90;;;1.80;;
33579;SDS011;19909;43.644;-79.438;2023-10-19T14:35:38;2.35;;;2.00;;
33579;SDS011;19909;43.644;-79.438;2023-10-19T14:38:06;2.90;;;2.03;;
33579;SDS011;19909;43.644;-79.438;2023-10-19T14:40:34;2.30;;;2.10;;
33579;SDS011;19909;43.644;-79.438;2023-10-19T14:43:00;3.13;;;2.60;;
33579;SDS011;19909;43.644;-79.438;2023-10-19T14:45:27;3.10;;;2.80;;
33579;SDS011;19909;43.644;-79.438;2023-10-19T14:47:54;3.63;;;3.20;;
33579;SDS011;19909;43.644;-79.438;2023-10-19T14:50:23;4.53;;;3.03;;
33579;SDS011;19909;43.644;-79.438;2023-10-19T14:52:51;3.22;;;2.92;;
33579;SDS011;19909;43.644;-79.438;2023-10-19T14:55:18;3.53;;;3.10;;
33579;SDS011;19909;43.644;-79.438;2023-10-19T14:57:45;3.45;;;2.53;;